Browning, MT (59417)

9:33 AM MST on December 05, 2016 (GMT -0700)
De La Salle Blackfeet School | | Change Station
Active Advisory: Winter Weather Advisory Active Notice: Local Storm Report

Elev 4367 ft 48.56 °N, 113.02 °W | Updated 6 seconds ago

Haze
Haze
6.0 °F
Feels Like -2 °F
N
4.0
Wind Variable Wind from NNE
Gusts 11.0 mph

Today
High -- | Low -- °F
--% Chance of Precip.
Yesterday
High -- | Low -- °F
Precip. -- in
Pressure 30.16 in
Visibility 5.0 miles
Clouds Overcast 3700 ft
Windchill -2 °F
Dew Point 2 °F
Humidity 82%
Rainfall 0.00 in
Snow Depth Not available.
8:08 AM 4:37 PM
Waxing Crescent, 33% visible
METAR KCTB 051556Z AUTO 33016KT 5SM HZ OVC037 M14/M17 A2997 RMK AO2 PK WND 35028/1503 SLP211 T11441172
Pressure 30.16 in
Visibility 5.0 miles
Clouds Overcast 3700 ft
Windchill -2 °F
Dew Point 2 °F
Humidity 82%
Rainfall 0.00 in
Snow Depth Not available.
8:08 AM 4:37 PM
Waxing Crescent, 33% visible
METAR KCTB 051556Z AUTO 33016KT 5SM HZ OVC037 M14/M17 A2997 RMK AO2 PK WND 35028/1503 SLP211 T11441172

10-Day Weather Forecast

Almanac

Astronomy

Dec. 05, 2016 Rise Set
Actual Time
Civil Twilight
Nautical Twilight
Astronomical Twilight
Moon
Length of Visible Light
Length of Day
Tomorrow will be .
, % of the Moon is Illuminated

Today's Extremes

State Highs State Lows

Community

WunderPhotos

Upload Photos

1,955,819 photos uploaded!

WunderBlog® & News

Nearby

Air Quality

  Air Quality AQ Index Pollutant
Not available.

Snow Depth

Station Depth Elevation

Earthquake Activity

City Distance Mag. Time & Date
Minimum magnitude displayed is 2.5.

Coastal Water Temperatures

Place Temperature

Stations

Nearby Weather Stations

Station Location Temp. Windchill Dew Point Humidity Wind Precip. Elev Updated Type
                   

Watches & Warnings

Winter Weather Advisory
Issued: 8:18 AM MST Dec. 5, 2016 – National Weather Service

... Winter Weather Advisory remains in effect
until 5 PM MST this afternoon...

* locations... Choteau... Browning... Marias Pass... Logan Pass.

* Snow accumulations... up to an additional 1 inch.

* Timing... periods of light snow will continue into the afternoon
hours.

* Impacts... roadways will be snow and ice covered. Visibility may
be reduced to less than 1 mile at times.

Precautionary/preparedness actions...

For specific Road and travel conditions in Montana... dial 5 1 1.